createdAt,value
2022-12-22T00:01:43.563Z,79.82
2022-12-22T00:04:07.152Z,80.78
2022-12-22T00:06:29.795Z,80.54
2022-12-22T00:08:49.902Z,80.26
2022-12-22T00:11:11.203Z,80.89
2022-12-22T00:13:33.487Z,79.83
2022-12-22T00:15:54.373Z,80.80
2022-12-22T00:18:14.575Z,80.20
2022-12-22T00:20:37.485Z,80.83
2022-12-22T00:22:59.131Z,81.41
2022-12-22T00:25:19.900Z,81.27
2022-12-22T00:27:46.742Z,81.87
2022-12-22T00:30:07.858Z,82.03
2022-12-22T00:32:32.734Z,81.50
2022-12-22T00:34:59.419Z,81.91
2022-12-22T00:37:19.923Z,81.79
2022-12-22T00:39:42.952Z,81.73
2022-12-22T00:42:03.294Z,81.72
2022-12-22T00:44:23.397Z,82.05
2022-12-22T00:46:43.764Z,81.69
2022-12-22T00:49:05.014Z,82.33
2022-12-22T00:51:25.800Z,82.07
2022-12-22T00:53:46.296Z,81.80
2022-12-22T00:56:08.167Z,81.84
2022-12-22T00:58:34.793Z,82.04
2022-12-22T01:00:55.176Z,82.24
2022-12-22T01:03:15.616Z,82.54
2022-12-22T01:05:35.911Z,82.73
2022-12-22T01:07:56.242Z,82.66
2022-12-22T01:10:16.728Z,82.95
2022-12-22T01:12:42.830Z,83.10
2022-12-22T01:15:03.132Z,82.94
2022-12-22T01:17:23.514Z,83.24
2022-12-22T01:19:43.851Z,83.26
2022-12-22T01:22:04.084Z,83.34
2022-12-22T01:24:29.733Z,82.88
2022-12-22T01:26:50.426Z,82.75
2022-12-22T01:29:11.951Z,83.57
2022-12-22T01:31:37.006Z,82.48
2022-12-22T01:33:57.253Z,83.21
2022-12-22T01:36:17.424Z,83.66
2022-12-22T01:38:38.044Z,83.95
2022-12-22T01:40:58.385Z,83.32
2022-12-22T01:43:18.626Z,82.98
2022-12-22T01:45:43.638Z,83.25
2022-12-22T01:48:03.985Z,84.03
2022-12-22T01:50:25.685Z,83.31
2022-12-22T01:52:51.703Z,84.07
2022-12-22T01:55:14.911Z,84.00
2022-12-22T01:57:35.045Z,84.13
2022-12-22T01:59:57.116Z,83.83
2022-12-22T02:02:23.322Z,84.21
2022-12-22T02:04:48.643Z,84.77
2022-12-22T02:07:15.262Z,84.22
2022-12-22T02:09:51.688Z,84.78
2022-12-22T02:12:21.031Z,85.16
2022-12-22T02:14:49.294Z,85.27
2022-12-22T02:17:22.886Z,83.42
2022-12-22T02:19:59.218Z,84.94
2022-12-22T02:22:28.622Z,84.68
2022-12-22T02:24:54.832Z,84.62
2022-12-22T02:27:19.327Z,84.22
2022-12-22T02:29:45.826Z,84.45
2022-12-22T02:32:06.756Z,84.71
2022-12-22T02:34:31.796Z,84.96
2022-12-22T02:37:12.395Z,85.14
2022-12-22T02:39:42.919Z,84.74
2022-12-22T02:42:10.574Z,85.49
2022-12-22T02:44:44.149Z,84.90
2022-12-22T02:47:13.933Z,84.99
2022-12-22T02:49:40.001Z,85.10
2022-12-22T02:52:05.406Z,85.32
2022-12-22T02:54:26.662Z,84.49
2022-12-22T02:56:46.886Z,85.16
2022-12-22T02:59:07.033Z,84.97
2022-12-22T03:01:29.305Z,83.98
2022-12-22T03:03:50.128Z,84.61
2022-12-22T03:06:10.248Z,84.58
2022-12-22T03:08:30.443Z,83.89
2022-12-22T03:10:50.670Z,84.06
2022-12-22T03:13:11.044Z,84.54
2022-12-22T03:15:31.793Z,84.04
2022-12-22T03:17:53.249Z,83.38
2022-12-22T03:20:13.835Z,84.00
2022-12-22T03:22:33.952Z,84.08
2022-12-22T03:24:54.264Z,83.54
2022-12-22T03:26:57.149Z,83.68
2022-12-22T03:29:00.228Z,84.18
2022-12-22T03:31:05.769Z,84.54
2022-12-22T03:33:09.979Z,83.68
2022-12-22T03:35:12.767Z,84.02
2022-12-22T03:37:15.596Z,83.46
2022-12-22T03:39:18.387Z,83.20
2022-12-22T03:41:41.266Z,84.21
2022-12-22T03:44:01.947Z,83.67
2022-12-22T03:46:22.868Z,83.67
2022-12-22T03:48:27.067Z,83.83
2022-12-22T03:50:29.923Z,83.57
2022-12-22T03:52:32.712Z,84.14
2022-12-22T03:54:35.603Z,84.02
2022-12-22T03:56:39.196Z,84.31
2022-12-22T03:58:42.147Z,83.63
2022-12-22T04:00:45.048Z,83.73
2022-12-22T04:02:48.040Z,83.31
2022-12-22T04:04:52.345Z,83.49
2022-12-22T04:06:55.497Z,83.02
2022-12-22T04:08:58.369Z,83.13
2022-12-22T04:11:18.776Z,83.90
2022-12-22T04:13:21.681Z,83.33
2022-12-22T04:15:26.284Z,82.70
2022-12-22T04:17:29.092Z,83.40
2022-12-22T04:19:32.057Z,83.32
2022-12-22T04:21:36.291Z,82.60
2022-12-22T04:23:39.115Z,82.89
2022-12-22T04:25:41.891Z,82.95
2022-12-22T04:27:44.668Z,83.70
2022-12-22T04:29:47.400Z,83.46
2022-12-22T04:31:50.245Z,83.74
2022-12-22T04:33:53.206Z,83.54
2022-12-22T04:35:56.153Z,84.06
2022-12-22T04:38:00.228Z,83.66
2022-12-22T04:40:03.460Z,84.42
2022-12-22T04:42:06.374Z,84.71
2022-12-22T04:44:40.156Z,84.20
2022-12-22T04:46:43.006Z,85.13
2022-12-22T04:48:45.782Z,84.54
2022-12-22T04:50:51.594Z,84.92
2022-12-22T04:52:55.014Z,84.24
2022-12-22T04:54:59.143Z,84.50
2022-12-22T04:57:02.480Z,85.41
2022-12-22T04:59:05.316Z,84.89
2022-12-22T05:01:16.256Z,84.68
2022-12-22T05:03:19.283Z,85.27
2022-12-22T05:05:22.209Z,85.51
2022-12-22T05:07:24.927Z,85.46
2022-12-22T05:09:27.744Z,85.42
2022-12-22T05:11:31.852Z,85.87
2022-12-22T05:13:34.767Z,86.46
2022-12-22T05:15:37.801Z,86.30
2022-12-22T05:17:40.598Z,85.91
2022-12-22T05:19:43.423Z,85.91
2022-12-22T05:21:46.448Z,85.88
2022-12-22T05:23:49.573Z,86.38
2022-12-22T05:25:52.379Z,87.08
2022-12-22T05:27:56.597Z,86.05
2022-12-22T05:29:59.374Z,85.92
2022-12-22T05:32:02.293Z,86.48
2022-12-22T05:34:05.131Z,86.58
2022-12-22T05:36:08.564Z,85.88
2022-12-22T05:38:11.359Z,86.28
2022-12-22T05:40:15.788Z,85.87
2022-12-22T05:42:35.600Z,86.80
2022-12-22T05:44:39.770Z,85.75
2022-12-22T05:46:42.577Z,85.66
2022-12-22T05:48:45.540Z,85.04
2022-12-22T05:50:48.336Z,85.60
2022-12-22T05:52:51.653Z,85.27
2022-12-22T05:54:54.947Z,85.43
2022-12-22T05:56:57.774Z,84.88
2022-12-22T05:59:00.629Z,84.94
2022-12-22T06:01:05.435Z,85.58
2022-12-22T06:03:08.136Z,85.13
2022-12-22T06:05:12.457Z,85.65
2022-12-22T06:07:16.426Z,84.94
2022-12-22T06:09:19.260Z,84.42
2022-12-22T06:11:22.123Z,84.39
2022-12-22T06:13:25.145Z,84.08
2022-12-22T06:15:27.979Z,84.76
2022-12-22T06:17:32.170Z,84.80
2022-12-22T06:19:35.106Z,85.24
2022-12-22T06:21:37.870Z,84.53
2022-12-22T06:23:40.660Z,84.74
2022-12-22T06:25:43.549Z,84.78
2022-12-22T06:27:46.900Z,85.71
2022-12-22T06:29:49.667Z,85.56
2022-12-22T06:31:52.465Z,84.97
2022-12-22T06:33:56.599Z,84.74
2022-12-22T06:35:59.781Z,84.83
2022-12-22T06:38:02.584Z,85.21
2022-12-22T06:40:06.872Z,84.88
2022-12-22T06:42:27.720Z,85.26
2022-12-22T06:44:31.223Z,85.57
2022-12-22T06:46:34.064Z,84.95
2022-12-22T06:48:36.872Z,85.61
2022-12-22T06:50:41.158Z,84.60
2022-12-22T06:52:44.597Z,84.48
2022-12-22T06:54:47.411Z,84.89
2022-12-22T06:56:50.137Z,84.73
2022-12-22T06:58:52.937Z,84.06
2022-12-22T07:00:57.067Z,84.24
2022-12-22T07:03:00.229Z,84.88
2022-12-22T07:05:03.416Z,85.42
2022-12-22T07:07:07.632Z,85.04
2022-12-22T07:09:10.509Z,85.56
2022-12-22T07:11:14.453Z,85.11
2022-12-22T07:13:20.360Z,85.07
2022-12-22T07:15:23.364Z,84.43
2022-12-22T07:17:26.107Z,84.24
2022-12-22T07:19:28.894Z,84.31
2022-12-22T07:21:31.728Z,84.12
2022-12-22T07:23:36.898Z,84.04
2022-12-22T07:25:39.773Z,84.81
2022-12-22T07:27:43.212Z,84.12
2022-12-22T07:29:46.025Z,83.95
2022-12-22T07:31:49.201Z,84.22
2022-12-22T07:33:52.585Z,83.48
2022-12-22T07:36:03.912Z,84.23
2022-12-22T07:38:06.699Z,83.31
2022-12-22T07:40:11.942Z,83.93
2022-12-22T07:42:32.203Z,83.37
2022-12-22T07:44:34.972Z,83.64
2022-12-22T07:46:39.830Z,82.72
2022-12-22T07:49:00.248Z,83.50
2022-12-22T07:51:05.147Z,83.01
2022-12-22T07:53:08.030Z,83.31
2022-12-22T07:55:12.145Z,82.27
2022-12-22T07:57:14.943Z,82.04
2022-12-22T07:59:17.735Z,81.90
2022-12-22T08:01:20.869Z,80.52
2022-12-22T08:03:23.922Z,80.21
2022-12-22T08:05:27.126Z,80.55
2022-12-22T08:07:29.959Z,80.17
2022-12-22T08:09:32.768Z,79.67
2022-12-22T08:11:37.191Z,80.09
2022-12-22T08:13:39.991Z,79.30
2022-12-22T08:15:42.798Z,79.45
2022-12-22T08:17:45.697Z,78.35
2022-12-22T08:19:49.508Z,78.34
2022-12-22T08:21:53.325Z,78.98
2022-12-22T08:23:56.340Z,78.57
2022-12-22T08:26:05.480Z,78.85
2022-12-22T08:28:09.871Z,79.44
2022-12-22T08:30:13.852Z,78.81
2022-12-22T08:32:17.273Z,78.82
2022-12-22T08:34:20.181Z,78.36
2022-12-22T08:36:23.318Z,79.07
2022-12-22T08:38:26.141Z,78.75
2022-12-22T08:40:32.331Z,78.09
2022-12-22T08:42:35.124Z,78.58
2022-12-22T08:44:39.888Z,78.71
2022-12-22T08:46:42.716Z,77.93
2022-12-22T08:48:46.703Z,77.92
2022-12-22T08:50:49.570Z,77.41
2022-12-22T08:52:52.385Z,78.14
2022-12-22T08:54:55.174Z,77.95
2022-12-22T08:56:59.067Z,78.36
2022-12-22T08:59:05.065Z,78.12
2022-12-22T09:01:09.335Z,78.33
2022-12-22T09:03:12.232Z,78.24
2022-12-22T09:05:15.231Z,77.58
2022-12-22T09:07:22.897Z,78.11
2022-12-22T09:09:26.281Z,77.79
2022-12-22T09:11:30.003Z,78.39
2022-12-22T09:13:32.847Z,78.24
2022-12-22T09:15:35.696Z,78.15
2022-12-22T09:17:39.876Z,78.18
2022-12-22T09:19:42.869Z,77.54
2022-12-22T09:21:45.951Z,77.18
2022-12-22T09:23:49.415Z,77.21
2022-12-22T09:25:52.566Z,77.13
2022-12-22T09:27:55.353Z,76.94
2022-12-22T09:29:58.140Z,77.28
2022-12-22T09:32:00.956Z,77.86
2022-12-22T09:34:05.189Z,77.60
2022-12-22T09:36:09.889Z,78.08
2022-12-22T09:38:12.694Z,77.90
2022-12-22T09:40:15.579Z,77.87
2022-12-22T09:42:21.393Z,78.35
2022-12-22T09:44:27.241Z,78.39
2022-12-22T09:46:32.480Z,78.72
2022-12-22T09:48:38.261Z,79.19
2022-12-22T09:50:43.176Z,79.79
2022-12-22T09:52:48.821Z,79.44
2022-12-22T09:54:51.775Z,79.57
2022-12-22T09:56:54.654Z,80.49
2022-12-22T09:58:58.141Z,79.98
2022-12-22T10:01:10.876Z,79.81
2022-12-22T10:03:25.663Z,79.74
2022-12-22T10:05:39.210Z,79.51
2022-12-22T10:07:44.466Z,79.34
2022-12-22T10:09:50.790Z,77.37
2022-12-22T10:11:56.140Z,76.40
2022-12-22T10:13:58.982Z,76.59
2022-12-22T10:16:01.780Z,75.06
2022-12-22T10:18:12.700Z,75.58
2022-12-22T10:20:25.740Z,75.18
2022-12-22T10:22:31.832Z,74.38
2022-12-22T10:24:36.901Z,74.35
2022-12-22T10:26:39.738Z,73.63
2022-12-22T10:28:46.608Z,73.52
2022-12-22T10:30:49.496Z,73.80
2022-12-22T10:33:07.447Z,72.88
2022-12-22T10:35:10.445Z,72.50
2022-12-22T10:37:13.317Z,72.70
2022-12-22T10:39:22.249Z,72.54
2022-12-22T10:41:29.748Z,72.29
2022-12-22T10:43:36.006Z,72.60
2022-12-22T10:45:38.791Z,72.26
2022-12-22T10:47:49.392Z,71.51
2022-12-22T10:52:12.461Z,70.97
2022-12-22T10:54:30.530Z,70.97
2022-12-22T10:56:35.508Z,70.69
2022-12-22T10:58:49.885Z,70.36
2022-12-22T11:01:03.250Z,70.32
2022-12-22T11:03:08.281Z,70.43
2022-12-22T11:05:12.560Z,70.68
2022-12-22T11:07:16.055Z,69.92
2022-12-22T11:09:35.533Z,69.93
2022-12-22T11:11:45.677Z,69.31
2022-12-22T11:14:03.613Z,70.08
2022-12-22T11:16:19.074Z,69.43
2022-12-22T11:18:45.603Z,70.52
2022-12-22T11:20:57.793Z,70.02
2022-12-22T11:23:04.474Z,69.59
2022-12-22T11:25:23.627Z,69.77
2022-12-22T11:27:46.005Z,69.53
2022-12-22T11:30:04.005Z,68.72
2022-12-22T11:32:23.994Z,69.49
2022-12-22T11:34:43.069Z,69.28
2022-12-22T11:37:01.432Z,69.58
2022-12-22T11:39:09.606Z,69.67
2022-12-22T11:41:26.185Z,69.48
2022-12-22T11:43:40.724Z,69.87
2022-12-22T11:45:53.174Z,69.38
2022-12-22T11:48:07.911Z,69.50
2022-12-22T11:50:58.993Z,69.19
2022-12-22T11:53:05.457Z,70.03
2022-12-22T11:55:31.082Z,69.25
2022-12-22T11:57:40.219Z,69.34
2022-12-22T11:59:55.074Z,69.21
2022-12-22T12:02:23.993Z,69.26
2022-12-22T12:04:44.938Z,69.19
2022-12-22T12:07:27.593Z,69.20
2022-12-22T12:09:44.540Z,69.04
2022-12-22T12:11:54.886Z,69.40
2022-12-22T12:14:09.740Z,69.52
2022-12-22T12:16:19.564Z,69.72
2022-12-22T12:18:45.069Z,69.32
2022-12-22T12:20:59.191Z,69.28
2022-12-22T12:23:16.679Z,69.70
2022-12-22T12:25:29.128Z,69.16
2022-12-22T12:27:49.862Z,69.24
2022-12-22T12:30:36.421Z,68.67
2022-12-22T12:32:32.443Z,69.15
2022-12-22T12:34:39.294Z,68.65
2022-12-22T12:36:48.739Z,69.02
2022-12-22T12:39:09.621Z,68.75
2022-12-22T12:41:21.716Z,68.39
2022-12-22T12:43:25.360Z,68.14
2022-12-22T12:45:36.375Z,68.07
2022-12-22T12:47:40.526Z,68.18
2022-12-22T12:49:58.594Z,68.48
2022-12-22T12:52:02.520Z,68.09
2022-12-22T12:54:34.902Z,67.97
2022-12-22T12:56:55.408Z,68.07
2022-12-22T12:58:58.946Z,67.34
2022-12-22T13:01:02.697Z,68.48
2022-12-22T13:03:19.900Z,68.08
2022-12-22T13:05:36.525Z,67.95
2022-12-22T13:08:22.679Z,67.38
2022-12-22T13:10:27.489Z,67.83
2022-12-22T13:12:40.088Z,67.13
2022-12-22T13:15:00.285Z,67.33
2022-12-22T13:17:34.572Z,67.63
2022-12-22T13:19:39.074Z,67.85
2022-12-22T13:21:53.911Z,67.68
2022-12-22T13:26:32.830Z,67.10
2022-12-22T13:28:37.521Z,66.59
2022-12-22T13:30:40.867Z,66.41
2022-12-22T13:32:46.019Z,66.67
2022-12-22T13:35:29.556Z,65.98
2022-12-22T13:37:23.321Z,65.77
2022-12-22T13:39:26.133Z,65.51
2022-12-22T13:41:31.986Z,65.65
2022-12-22T13:43:34.909Z,64.92
2022-12-22T13:45:40.298Z,64.81
2022-12-22T13:47:44.776Z,65.34
2022-12-22T13:52:17.311Z,65.26
2022-12-22T13:54:28.546Z,65.35
2022-12-22T13:56:38.198Z,64.56
2022-12-22T13:58:44.943Z,64.41
2022-12-22T14:01:01.037Z,64.53
2022-12-22T14:03:08.906Z,64.72
2022-12-22T14:05:13.913Z,65.05
2022-12-22T14:07:19.376Z,65.15
2022-12-22T14:09:24.139Z,64.93
2022-12-22T14:11:26.973Z,64.93
2022-12-22T14:13:33.329Z,65.06
2022-12-22T14:15:36.334Z,65.43
2022-12-22T14:17:47.813Z,65.64
2022-12-22T14:19:57.414Z,65.39
2022-12-22T14:22:05.728Z,65.70
2022-12-22T14:24:17.272Z,66.22
2022-12-22T14:26:27.156Z,66.21
2022-12-22T14:28:35.105Z,66.24
2022-12-22T14:30:42.551Z,66.41
2022-12-22T14:32:54.454Z,66.17
2022-12-22T14:34:58.021Z,66.65
2022-12-22T14:37:02.258Z,66.60
2022-12-22T14:39:11.126Z,66.78
2022-12-22T14:41:39.806Z,66.36
2022-12-22T14:43:42.778Z,66.53
2022-12-22T14:45:47.131Z,66.82
2022-12-22T14:47:50.056Z,66.71
2022-12-22T14:49:55.060Z,67.10
2022-12-22T14:52:03.693Z,67.76
2022-12-22T14:54:08.061Z,68.26
2022-12-22T14:56:13.237Z,68.70
2022-12-22T14:58:22.808Z,69.16
2022-12-22T15:00:33.055Z,69.71
2022-12-22T15:02:39.916Z,70.46
2022-12-22T15:04:43.258Z,70.76
2022-12-22T15:06:48.009Z,71.21
2022-12-22T15:08:52.617Z,71.93
2022-12-22T15:10:55.397Z,72.27
2022-12-22T15:13:01.089Z,73.67
2022-12-22T15:15:12.528Z,74.30
2022-12-22T15:17:21.962Z,74.32
2022-12-22T15:19:25.062Z,74.58
2022-12-22T15:21:27.924Z,74.73
2022-12-22T15:23:31.033Z,74.66
2022-12-22T15:25:33.991Z,74.72
2022-12-22T15:27:36.790Z,75.64
2022-12-22T15:29:40.037Z,76.36
2022-12-22T15:31:44.668Z,76.38
2022-12-22T15:33:47.555Z,77.46
2022-12-22T15:35:50.466Z,78.28
2022-12-22T15:37:53.787Z,78.33
2022-12-22T15:40:16.031Z,79.54
2022-12-22T15:42:18.843Z,79.42
2022-12-22T15:44:22.437Z,79.36
2022-12-22T15:46:25.456Z,80.15
2022-12-22T15:48:33.034Z,79.89
2022-12-22T15:50:40.606Z,80.49
2022-12-22T15:52:48.412Z,80.68
2022-12-22T15:54:51.298Z,80.87
2022-12-22T15:56:55.828Z,80.34
2022-12-22T15:58:58.845Z,80.62
2022-12-22T16:01:01.805Z,80.57
2022-12-22T16:03:05.374Z,80.39
2022-12-22T16:05:11.581Z,80.88
2022-12-22T16:07:14.537Z,80.93
2022-12-22T16:09:21.813Z,80.31
2022-12-22T16:11:24.747Z,79.78
2022-12-22T16:13:29.648Z,79.93
2022-12-22T16:15:34.610Z,80.02
2022-12-22T16:17:38.715Z,79.95
2022-12-22T16:19:41.545Z,79.81
2022-12-22T16:21:48.781Z,79.50
2022-12-22T16:23:52.009Z,79.33
2022-12-22T16:26:01.665Z,79.63
2022-12-22T16:28:06.895Z,78.93
2022-12-22T16:30:16.446Z,78.91
2022-12-22T16:32:25.031Z,79.03
2022-12-22T16:34:27.808Z,79.52
2022-12-22T16:36:30.664Z,79.26
2022-12-22T16:38:35.719Z,78.68
2022-12-22T16:40:43.896Z,78.05
2022-12-22T16:45:19.201Z,78.20
2022-12-22T16:47:25.249Z,78.15
2022-12-22T16:49:28.026Z,78.04
2022-12-22T16:51:34.582Z,77.59
2022-12-22T16:53:38.822Z,77.58
2022-12-22T16:55:42.283Z,77.86
2022-12-22T16:57:45.839Z,78.11
2022-12-22T16:59:48.628Z,78.17
2022-12-22T17:01:54.682Z,77.38
2022-12-22T17:03:58.830Z,77.56
2022-12-22T17:06:03.549Z,77.10
2022-12-22T17:08:07.375Z,77.61
2022-12-22T17:10:15.824Z,77.25
2022-12-22T17:12:21.068Z,77.08
2022-12-22T17:14:29.865Z,77.63
2022-12-22T17:16:32.822Z,77.92
2022-12-22T17:18:36.413Z,77.70
2022-12-22T17:20:39.279Z,77.51
2022-12-22T17:22:44.274Z,77.10
2022-12-22T17:24:47.129Z,77.67
2022-12-22T17:26:52.008Z,77.50
2022-12-22T17:28:54.700Z,77.51
2022-12-22T17:30:57.662Z,77.34
2022-12-22T17:33:00.528Z,76.73
2022-12-22T17:35:03.492Z,76.95
2022-12-22T17:37:13.625Z,77.08
2022-12-22T17:39:19.555Z,76.60
2022-12-22T17:41:22.386Z,76.95
2022-12-22T17:43:26.619Z,77.28
2022-12-22T17:45:29.545Z,77.43
2022-12-22T17:47:40.440Z,76.69
2022-12-22T17:49:46.073Z,77.27
2022-12-22T17:51:49.463Z,76.76
2022-12-22T17:53:53.357Z,76.97
2022-12-22T17:56:11.671Z,76.68
2022-12-22T17:58:16.435Z,77.44
2022-12-22T18:00:24.466Z,77.46
2022-12-22T18:02:27.958Z,76.86
2022-12-22T18:04:30.904Z,76.50
2022-12-22T18:06:36.480Z,76.14
2022-12-22T18:08:39.419Z,76.94
2022-12-22T18:10:42.724Z,76.87
2022-12-22T18:12:45.693Z,76.69
2022-12-22T18:14:49.739Z,77.54
2022-12-22T18:16:54.451Z,76.68
2022-12-22T18:18:57.198Z,77.12
2022-12-22T18:21:06.586Z,77.03
2022-12-22T18:23:16.860Z,76.90
2022-12-22T18:25:22.629Z,76.83
2022-12-22T18:27:25.545Z,76.81
2022-12-22T18:29:28.449Z,76.92
2022-12-22T18:31:31.364Z,77.15
2022-12-22T18:33:35.618Z,77.66
2022-12-22T18:35:39.623Z,77.21
2022-12-22T18:37:42.974Z,77.10
2022-12-22T18:39:46.062Z,77.74
2022-12-22T18:41:49.267Z,77.39
2022-12-22T18:43:52.637Z,76.97
2022-12-22T18:45:55.415Z,76.62
2022-12-22T18:47:58.636Z,77.00
2022-12-22T18:50:05.410Z,76.71
2022-12-22T18:52:18.369Z,76.26
2022-12-22T18:54:29.902Z,75.74
2022-12-22T18:56:33.587Z,76.59
2022-12-22T18:58:36.500Z,75.68
2022-12-22T19:00:39.293Z,75.57
2022-12-22T19:02:42.855Z,76.14
2022-12-22T19:04:45.830Z,75.55
2022-12-22T19:06:49.985Z,75.94
2022-12-22T19:08:52.907Z,75.35
2022-12-22T19:10:57.951Z,74.86
2022-12-22T19:13:01.400Z,75.84
2022-12-22T19:15:06.959Z,75.39
2022-12-22T19:17:15.086Z,75.91
2022-12-22T19:19:19.376Z,76.04
2022-12-22T19:21:22.488Z,76.92
2022-12-22T19:23:27.222Z,76.53
2022-12-22T19:25:32.672Z,76.91
2022-12-22T19:27:35.556Z,77.21
2022-12-22T19:29:38.493Z,77.26
2022-12-22T19:31:41.906Z,77.70
2022-12-22T19:33:45.034Z,78.18
2022-12-22T19:35:48.083Z,78.49
2022-12-22T19:37:53.029Z,77.64
2022-12-22T19:39:57.338Z,77.62
2022-12-22T19:42:00.669Z,78.25
2022-12-22T19:44:03.717Z,78.12
2022-12-22T19:46:06.799Z,78.37
2022-12-22T19:48:18.558Z,78.75
2022-12-22T19:50:24.244Z,79.32
2022-12-22T19:52:27.298Z,79.69
2022-12-22T19:54:32.295Z,79.42
2022-12-22T19:56:36.683Z,79.55
2022-12-22T19:58:41.629Z,80.22
2022-12-22T20:00:44.971Z,80.03
2022-12-22T20:02:53.099Z,80.35
2022-12-22T20:04:57.095Z,80.69
2022-12-22T20:07:00.252Z,81.58
2022-12-22T20:09:03.263Z,81.57
2022-12-22T20:11:13.648Z,81.20
2022-12-22T20:13:21.633Z,81.78
2022-12-22T20:15:27.374Z,81.26
2022-12-22T20:17:30.180Z,81.22
2022-12-22T20:19:33.047Z,80.64
2022-12-22T20:21:36.230Z,80.71
2022-12-22T20:23:40.213Z,81.56
2022-12-22T20:25:46.200Z,80.60
2022-12-22T20:27:49.982Z,81.60
2022-12-22T20:29:54.283Z,81.00
2022-12-22T20:31:57.170Z,81.77
2022-12-22T20:34:01.247Z,81.76
2022-12-22T20:36:13.119Z,80.89
2022-12-22T20:38:20.088Z,81.38
2022-12-22T20:40:25.980Z,81.80
2022-12-22T20:42:28.797Z,81.26
2022-12-22T20:44:31.735Z,81.83
2022-12-22T20:46:36.112Z,81.53
2022-12-22T20:48:41.238Z,82.22
2022-12-22T20:50:44.059Z,82.17
2022-12-22T20:52:46.853Z,81.89
2022-12-22T20:54:49.937Z,81.96
2022-12-22T20:56:52.707Z,81.97
2022-12-22T20:58:55.812Z,81.71
2022-12-22T21:01:00.991Z,82.18
2022-12-22T21:03:05.299Z,81.69
2022-12-22T21:05:09.086Z,82.12
2022-12-22T21:07:11.836Z,81.84
2022-12-22T21:09:16.056Z,82.11
2022-12-22T21:11:19.011Z,81.65
2022-12-22T21:13:22.944Z,82.15
2022-12-22T21:15:28.628Z,81.49
2022-12-22T21:17:31.424Z,82.04
2022-12-22T21:19:35.579Z,82.11
2022-12-22T21:21:38.411Z,81.77
2022-12-22T21:23:41.284Z,82.43
2022-12-22T21:25:46.770Z,81.96
2022-12-22T21:27:52.651Z,82.45
2022-12-22T21:29:55.480Z,82.53
2022-12-22T21:31:58.368Z,82.48
2022-12-22T21:34:01.216Z,82.59
2022-12-22T21:36:06.107Z,82.16
2022-12-22T21:38:08.897Z,82.00
2022-12-22T21:40:19.316Z,83.07
2022-12-22T21:42:22.217Z,83.29
2022-12-22T21:44:25.021Z,83.04
2022-12-22T21:46:27.969Z,82.48
2022-12-22T21:48:30.930Z,83.27
2022-12-22T21:50:35.238Z,83.38
2022-12-22T21:52:40.110Z,83.06
2022-12-22T21:54:42.928Z,83.01
2022-12-22T21:56:46.203Z,82.42
2022-12-22T21:58:49.054Z,83.45
2022-12-22T22:00:51.824Z,83.38
2022-12-22T22:02:56.011Z,82.78
2022-12-22T22:04:58.987Z,83.02
2022-12-22T22:07:01.756Z,82.28
2022-12-22T22:09:07.131Z,83.10
2022-12-22T22:11:18.203Z,82.63
2022-12-22T22:13:20.967Z,82.10
2022-12-22T22:15:26.141Z,82.51
2022-12-22T22:17:28.936Z,82.73
2022-12-22T22:19:31.731Z,83.43
2022-12-22T22:21:34.462Z,83.45
2022-12-22T22:23:37.540Z,83.17
2022-12-22T22:25:41.963Z,83.06
2022-12-22T22:27:47.953Z,83.26
2022-12-22T22:29:51.133Z,82.52
2022-12-22T22:31:53.935Z,82.92
2022-12-22T22:33:56.700Z,82.17
2022-12-22T22:36:06.182Z,82.18
2022-12-22T22:38:11.685Z,82.56
2022-12-22T22:40:16.072Z,82.96
2022-12-22T22:42:20.200Z,82.57
2022-12-22T22:44:23.245Z,82.40
2022-12-22T22:46:26.203Z,82.33
2022-12-22T22:48:29.039Z,82.28
2022-12-22T22:50:32.012Z,82.07
2022-12-22T22:52:35.056Z,82.43
2022-12-22T22:54:37.869Z,82.30
2022-12-22T22:56:40.851Z,82.69
2022-12-22T22:58:45.163Z,82.48
2022-12-22T23:00:47.978Z,83.04
2022-12-22T23:02:50.928Z,82.68
2022-12-22T23:04:53.760Z,82.68
2022-12-22T23:06:56.563Z,82.95
2022-12-22T23:08:59.424Z,83.18
2022-12-22T23:11:03.020Z,82.50
2022-12-22T23:13:05.739Z,82.50
2022-12-22T23:15:10.821Z,82.99
2022-12-22T23:17:13.841Z,82.51
2022-12-22T23:19:17.234Z,82.84
2022-12-22T23:21:20.745Z,82.96
2022-12-22T23:23:23.641Z,83.09
2022-12-22T23:25:26.439Z,82.83
2022-12-22T23:27:29.250Z,82.79
2022-12-22T23:29:32.051Z,82.72
2022-12-22T23:31:36.339Z,82.62
2022-12-22T23:33:39.699Z,82.67
2022-12-22T23:35:43.282Z,83.10
2022-12-22T23:37:46.066Z,83.27
2022-12-22T23:39:48.888Z,82.69
2022-12-22T23:41:51.621Z,82.63
2022-12-22T23:43:55.067Z,82.89
2022-12-22T23:45:57.868Z,83.12
2022-12-22T23:48:02.117Z,83.33
2022-12-22T23:50:05.317Z,83.22
2022-12-22T23:52:08.045Z,83.16
2022-12-22T23:54:10.870Z,83.43
2022-12-22T23:56:13.662Z,82.81
2022-12-22T23:58:17.314Z,82.89
